Time;durP1;ratioP1;P1;durP2;ratioP2;P2;SDS_P1;SDS_P2;PMS_P1;PMS_P2;Temp;Humidity;BMP_temperature;BMP_pressure;BME280_temperature;BME280_humidity;BME280_pressure;Samples;Min_cycle;Max_cycle;Signal;HPM_P1;HPM_P2
2021/11/21 00:00:56;;;;;;;29.25;24.15;;;;;;;8.47;100.00;98870.66;2086502;28;20244;-70
2021/11/21 00:02:00;;;;;;;27.52;24.73;;;;;;;8.45;100.00;98875.50;2086226;28;20231;-70
2021/11/21 00:03:02;;;;;;;27.25;24.40;;;;;;;8.50;100.00;98880.72;2086051;28;20226;-71
2021/11/21 00:04:04;;;;;;;27.87;25.07;;;;;;;8.50;100.00;98878.06;2086169;28;20301;-70
2021/11/21 00:05:06;;;;;;;26.80;24.20;;;;;;;8.50;100.00;98872.75;2086206;28;20284;-70
2021/11/21 00:06:07;;;;;;;26.13;23.60;;;;;;;8.52;100.00;98874.34;2080291;28;20227;-70
2021/11/21 00:07:11;;;;;;;26.10;23.48;;;;;;;8.58;100.00;98867.88;2077689;28;20227;-70
2021/11/21 00:08:13;;;;;;;27.23;24.52;;;;;;;8.56;100.00;98875.34;2077997;28;20775;-72
2021/11/21 00:09:16;;;;;;;27.25;24.50;;;;;;;8.53;100.00;98878.59;2078191;28;20228;-70
2021/11/21 00:10:17;;;;;;;27.17;24.25;;;;;;;8.51;100.00;98881.50;2085860;28;20222;-71
2021/11/21 00:11:19;;;;;;;27.97;25.07;;;;;;;8.49;100.00;98867.72;2086198;28;20226;-70
2021/11/21 00:12:19;;;;;;;27.15;24.52;;;;;;;8.48;100.00;98874.91;2086316;28;20233;-70
2021/11/21 00:13:21;;;;;;;27.77;25.07;;;;;;;8.47;100.00;98870.66;2086380;28;20223;-70
2021/11/21 00:14:23;;;;;;;27.55;24.75;;;;;;;8.50;100.00;98877.28;2077452;28;20222;-72
2021/11/21 00:15:26;;;;;;;27.80;25.00;;;;;;;8.49;100.00;98871.16;2077024;28;20227;-71
2021/11/21 00:16:27;;;;;;;27.85;25.05;;;;;;;8.47;100.00;98870.66;2078195;28;20227;-71
2021/11/21 00:17:29;;;;;;;28.03;25.03;;;;;;;8.45;100.00;98856.88;2087799;28;20346;-71
2021/11/21 00:18:31;;;;;;;27.10;24.30;;;;;;;8.44;100.00;98863.28;2088430;28;20233;-71
2021/11/21 00:19:32;;;;;;;28.38;25.38;;;;;;;8.44;100.00;98868.59;2087734;28;20639;-71
2021/11/21 00:20:33;;;;;;;28.70;25.80;;;;;;;8.43;100.00;98861.69;2079486;28;20220;-71
2021/11/21 00:21:36;;;;;;;28.88;25.85;;;;;;;8.43;100.00;98864.34;2079073;28;20223;-71
2021/11/21 00:22:38;;;;;;;29.58;26.40;;;;;;;8.45;100.00;98859.53;2089566;28;20238;-74
2021/11/21 00:23:40;;;;;;;28.73;25.60;;;;;;;8.43;100.00;98861.69;2087572;28;20265;-71
2021/11/21 00:24:41;;;;;;;28.60;25.60;;;;;;;8.42;100.00;98854.78;2087750;28;20309;-71
2021/11/21 00:25:43;;;;;;;29.65;26.55;;;;;;;8.45;100.00;98848.13;2088504;28;20229;-70
2021/11/21 00:26:44;;;;;;;28.00;25.30;;;;;;;8.45;100.00;98848.13;2088449;28;20273;-71
2021/11/21 00:27:46;;;;;;;28.83;25.90;;;;;;;8.43;100.00;98840.44;2088444;28;20272;-71
2021/11/21 00:28:47;;;;;;;29.70;26.60;;;;;;;8.43;100.00;98853.72;2088414;28;20227;-71
2021/11/21 00:29:53;;;;;;;27.98;24.98;;;;;;;8.42;100.00;98840.69;2087570;28;20238;-70
2021/11/21 00:30:54;;;;;;;26.70;23.95;;;;;;;8.41;100.00;98845.22;2087278;28;20233;-71
2021/11/21 00:31:56;;;;;;;28.40;25.50;;;;;;;8.40;100.00;98850.84;2088452;28;20229;-71
2021/11/21 00:32:56;;;;;;;28.73;25.70;;;;;;;8.39;100.00;98852.69;2087625;28;21757;-71
2021/11/21 00:33:58;;;;;;;28.70;25.70;;;;;;;8.41;100.00;98847.09;2087679;28;20701;-71
2021/11/21 00:34:59;;;;;;;27.60;24.73;;;;;;;8.39;100.00;98842.06;2087431;28;20226;-71
2021/11/21 00:36:03;;;;;;;29.33;26.23;;;;;;;8.39;100.00;98836.75;2087752;28;20276;-71
2021/11/21 00:37:04;;;;;;;29.60;26.48;;;;;;;8.43;100.00;98842.31;2087488;28;20222;-70
2021/11/21 00:38:07;;;;;;;28.37;25.57;;;;;;;8.42;100.00;98843.34;2087697;28;20689;-70
2021/11/21 00:39:07;;;;;;;29.17;26.30;;;;;;;8.37;100.00;98838.13;2086981;28;20235;-70
2021/11/21 00:40:10;;;;;;;29.37;26.37;;;;;;;8.41;100.00;98831.13;2087563;28;20226;-71
2021/11/21 00:41:11;;;;;;;29.98;26.25;;;;;;;8.43;100.00;98840.44;2087419;28;20222;-70
2021/11/21 00:42:17;;;;;;;27.20;24.60;;;;;;;8.40;100.00;98835.66;2079552;28;20223;-70
2021/11/21 00:43:20;;;;;;;27.38;24.67;;;;;;;8.38;100.00;98832.50;2096278;28;20273;-71
2021/11/21 00:44:23;;;;;;;29.13;26.05;;;;;;;8.39;100.00;98835.97;2095387;28;20222;-72
2021/11/21 00:45:24;;;;;;;28.73;25.90;;;;;;;8.39;100.00;98830.66;2088782;28;20279;-72
2021/11/21 00:46:26;;;;;;;28.70;25.88;;;;;;;8.36;100.00;98829.34;2087532;28;20225;-71
2021/11/21 00:47:27;;;;;;;28.13;25.23;;;;;;;8.36;100.00;98834.69;2079347;28;20231;-72
2021/11/21 00:48:30;;;;;;;26.97;24.10;;;;;;;8.34;100.00;98831.50;2087601;28;20697;-71
2021/11/21 00:49:31;;;;;;;28.50;25.45;;;;;;;8.36;100.00;98829.34;2088309;28;20229;-71
2021/11/21 00:50:35;;;;;;;28.63;25.50;;;;;;;8.36;100.00;98837.34;2088008;28;20229;-72
2021/11/21 00:51:36;;;;;;;28.83;25.80;;;;;;;8.36;100.00;98829.34;2088397;28;20360;-71
2021/11/21 00:52:38;;;;;;;28.00;25.00;;;;;;;8.34;100.00;98831.50;2087074;28;20231;-75
2021/11/21 00:53:43;;;;;;;30.00;25.58;;;;;;;8.41;100.00;98823.94;2087423;28;20230;-71
2021/11/21 00:54:50;;;;;;;28.67;25.60;;;;;;;8.36;100.00;98812.63;2088132;28;20598;-71
2021/11/21 00:55:53;;;;;;;29.20;25.80;;;;;;;8.31;100.00;98813.44;2087359;28;20215;-71
2021/11/21 00:56:55;;;;;;;27.02;24.25;;;;;;;8.33;100.00;98813.16;2079063;28;20298;-71
2021/11/21 00:57:56;;;;;;;29.08;26.05;;;;;;;8.33;100.00;98818.47;2079111;28;20230;-71
2021/11/21 00:58:58;;;;;;;27.47;24.63;;;;;;;8.33;100.00;98818.47;2087462;28;20317;-71
2021/11/21 00:59:59;;;;;;;29.13;25.35;;;;;;;8.31;100.00;98810.78;2088098;28;20218;-72
2021/11/21 01:01:02;;;;;;;27.97;25.03;;;;;;;8.33;100.00;98810.50;2087336;28;20218;-71
2021/11/21 01:02:08;;;;;;;28.27;25.50;;;;;;;8.30;100.00;98803.09;2079454;28;20228;-71
2021/11/21 01:03:12;;;;;;;28.23;25.38;;;;;;;8.28;100.00;98800.72;2087681;28;20240;-72
2021/11/21 01:04:14;;;;;;;27.73;24.92;;;;;;;8.28;100.00;98806.03;2087723;28;20288;-71
2021/11/21 01:05:16;;;;;;;27.83;24.98;;;;;;;8.28;100.00;98800.72;2095708;28;20218;-71
2021/11/21 01:06:17;;;;;;;29.27;26.13;;;;;;;8.27;100.00;98801.81;2095667;28;20291;-71
2021/11/21 01:07:21;;;;;;;28.63;25.63;;;;;;;8.25;100.00;98795.97;2095779;28;20222;-72
2021/11/21 01:08:22;;;;;;;28.45;25.38;;;;;;;8.21;100.00;98790.44;2095114;28;20278;-73
2021/11/21 01:09:26;;;;;;;31.13;25.33;;;;;;;8.21;100.00;98795.75;2095664;28;20226;-71
2021/11/21 01:10:29;;;;;;;28.75;25.95;;;;;;;8.19;100.00;98791.81;2094919;28;20453;-72
2021/11/21 01:11:35;;;;;;;28.90;25.80;;;;;;;8.21;100.00;98795.75;2095747;28;20233;-71
2021/11/21 01:12:36;;;;;;;28.63;25.83;;;;;;;8.21;100.00;98798.41;2096477;28;20226;-71
2021/11/21 01:13:38;;;;;;;28.30;25.40;;;;;;;8.22;100.00;98796.56;2095025;28;20268;-72
2021/11/21 01:14:39;;;;;;;28.55;25.65;;;;;;;8.21;100.00;98794.97;2087293;28;20264;-71
2021/11/21 01:15:41;;;;;;;29.33;26.33;;;;;;;8.17;100.00;98778.03;2095284;28;20230;-71
2021/11/21 01:16:42;;;;;;;28.08;25.17;;;;;;;8.18;100.00;98788.38;2095325;28;20234;-72
2021/11/21 01:17:46;;;;;;;29.02;26.20;;;;;;;8.19;100.00;98789.94;2095682;28;20297;-72
2021/11/21 01:18:49;;;;;;;29.48;26.15;;;;;;;8.16;100.00;98787.06;2095127;28;20253;-71
2021/11/21 01:19:50;;;;;;;28.52;25.67;;;;;;;8.17;100.00;98784.13;2095673;28;20625;-71
2021/11/21 01:20:52;;;;;;;28.40;25.30;;;;;;;8.18;100.00;98785.72;2095810;28;20291;-72
2021/11/21 01:21:53;;;;;;;27.98;25.08;;;;;;;8.25;100.00;98777.38;2095078;28;20239;-71
2021/11/21 01:22:55;;;;;;;28.85;25.88;;;;;;;8.23;100.00;98775.00;2095462;28;20572;-71
2021/11/21 01:24:00;;;;;;;29.17;26.08;;;;;;;8.19;100.00;98774.00;2095585;28;20225;-71
2021/11/21 01:25:06;;;;;;;28.45;25.42;;;;;;;8.22;100.00;98777.94;2096246;28;20226;-72
2021/11/21 01:26:08;;;;;;;28.25;25.42;;;;;;;8.18;100.00;98769.78;2095959;28;20222;-72
2021/11/21 01:27:09;;;;;;;28.58;25.83;;;;;;;8.17;100.00;98768.19;2096295;28;20229;-71
2021/11/21 01:28:11;;;;;;;29.90;26.73;;;;;;;8.16;100.00;98773.78;2095564;28;20283;-71
2021/11/21 01:29:11;;;;;;;30.38;27.15;;;;;;;8.14;100.00;98775.94;2095554;28;20295;-72
2021/11/21 01:30:16;;;;;;;30.53;27.27;;;;;;;8.13;100.00;98771.69;2095695;28;20222;-71
2021/11/21 01:31:19;;;;;;;29.83;26.45;;;;;;;8.14;100.00;98774.06;2096302;28;20225;-71
2021/11/21 01:32:22;;;;;;;28.70;25.80;;;;;;;8.12;100.00;98762.94;2095910;28;20222;-70
2021/11/21 01:33:24;;;;;;;28.52;25.73;;;;;;;8.10;100.00;98765.09;2095828;28;20308;-71
2021/11/21 01:34:26;;;;;;;30.30;26.30;;;;;;;8.08;100.00;98758.47;2095371;28;20226;-72
2021/11/21 01:35:28;;;;;;;29.80;26.70;;;;;;;8.06;100.00;98758.75;2095415;28;20272;-71
2021/11/21 01:36:29;;;;;;;29.55;26.58;;;;;;;8.06;100.00;98757.97;2103651;28;20272;-71
2021/11/21 01:37:30;;;;;;;29.15;26.23;;;;;;;8.04;100.00;98758.25;2096133;28;20290;-70
2021/11/21 01:38:33;;;;;;;28.73;25.73;;;;;;;8.06;100.00;98757.97;2094920;28;20284;-71
2021/11/21 01:39:35;;;;;;;31.10;27.40;;;;;;;8.07;100.00;98755.03;2087457;28;20284;-71
2021/11/21 01:40:38;;;;;;;28.50;25.50;;;;;;;8.06;100.00;98752.66;2086659;28;20247;-71
2021/11/21 01:41:39;;;;;;;29.15;26.20;;;;;;;8.03;100.00;98745.28;2086489;28;20704;-71
2021/11/21 01:42:41;;;;;;;28.47;25.57;;;;;;;8.00;100.00;98751.97;2095616;28;20648;-71
2021/11/21 01:43:42;;;;;;;28.60;25.55;;;;;;;7.97;100.00;98747.19;2095678;28;20230;-71
2021/11/21 01:44:46;;;;;;;27.30;24.73;;;;;;;7.94;100.00;98745.13;2087063;28;20742;-71
2021/11/21 01:45:48;;;;;;;28.20;25.40;;;;;;;7.92;100.00;98739.31;2087905;28;20247;-71
2021/11/21 01:46:51;;;;;;;28.55;25.60;;;;;;;7.94;100.00;98743.25;2095521;28;20284;-71
2021/11/21 01:47:53;;;;;;;28.55;25.35;;;;;;;7.91;100.00;98740.41;2095595;28;20222;-71
2021/11/21 01:48:57;;;;;;;29.58;26.38;;;;;;;7.92;100.00;98739.31;2095137;28;20218;-71
2021/11/21 01:49:58;;;;;;;27.85;25.15;;;;;;;7.88;100.00;98736.41;2087266;28;20230;-71
2021/11/21 01:51:04;;;;;;;29.10;25.90;;;;;;;7.86;100.00;98735.94;2086953;28;20280;-71
2021/11/21 01:52:07;;;;;;;29.17;25.05;;;;;;;7.85;100.00;98729.03;2095412;28;20267;-71
2021/11/21 01:53:10;;;;;;;27.73;24.92;;;;;;;7.88;100.00;98728.44;2086802;28;20326;-71
2021/11/21 01:54:12;;;;;;;28.65;25.48;;;;;;;7.88;100.00;98733.75;2079202;28;23154;-71
2021/11/21 01:55:14;;;;;;;28.70;25.92;;;;;;;7.85;100.00;98726.38;2082636;28;20226;-71
2021/11/21 01:56:17;;;;;;;28.05;25.15;;;;;;;7.84;100.00;98724.81;2087007;28;20261;-71
2021/11/21 01:57:19;;;;;;;28.70;25.70;;;;;;;7.85;100.00;98733.56;2087016;28;20279;-71
2021/11/21 01:58:20;;;;;;;28.92;25.85;;;;;;;7.84;100.00;98721.34;2078906;28;20650;-71
2021/11/21 01:59:23;;;;;;;28.50;25.23;;;;;;;7.84;100.00;98724.81;2078906;28;20231;-71
2021/11/21 02:00:27;;;;;;;28.25;25.40;;;;;;;7.83;100.00;98717.91;2086748;28;20288;-71
2021/11/21 02:01:29;;;;;;;28.92;26.00;;;;;;;7.81;100.00;98717.38;2086968;28;20226;-71
2021/11/21 02:02:30;;;;;;;28.77;25.88;;;;;;;7.82;100.00;98723.50;2087079;28;20218;-71
2021/11/21 02:03:31;;;;;;;28.20;25.33;;;;;;;7.83;100.00;98720.56;2086824;28;20793;-71
2021/11/21 02:04:32;;;;;;;28.70;25.75;;;;;;;7.82;100.00;98716.34;2087078;28;20697;-70
2021/11/21 02:05:38;;;;;;;29.98;25.65;;;;;;;7.82;100.00;98716.34;2087217;28;20593;-70
2021/11/21 02:06:41;;;;;;;30.08;26.83;;;;;;;7.80;100.00;98709.72;2078639;28;20604;-72
2021/11/21 02:07:46;;;;;;;29.35;26.40;;;;;;;7.76;100.00;98706.06;2087048;28;20298;-71
2021/11/21 02:08:53;;;;;;;28.55;25.67;;;;;;;7.77;100.00;98705.78;2078713;28;20219;-71
2021/11/21 02:09:58;;;;;;;30.63;25.40;;;;;;;7.75;100.00;98707.13;2071186;28;20223;-71
2021/11/21 02:13:23;;;;;;;27.40;24.55;;;;;;;7.74;100.00;98694.94;2093793;28;20218;-70
2021/11/21 02:14:24;;;;;;;28.33;25.42;;;;;;;7.72;100.00;98695.19;2086355;28;20226;-72
2021/11/21 02:15:26;;;;;;;29.08;24.98;;;;;;;7.69;100.00;98697.66;2078463;28;20786;-71
2021/11/21 02:16:29;;;;;;;27.70;24.95;;;;;;;7.65;100.00;98694.78;2078089;28;20238;-71
2021/11/21 02:17:32;;;;;;;28.60;24.33;;;;;;;7.61;100.00;98691.09;2078873;28;20219;-71
2021/11/21 02:18:35;;;;;;;28.70;25.67;;;;;;;7.59;100.00;98693.25;2078664;28;20223;-70
2021/11/21 02:19:36;;;;;;;26.70;24.08;;;;;;;7.55;100.00;98690.38;2083021;28;20303;-71
2021/11/21 02:20:46;;;;;;;27.97;24.93;;;;;;;7.51;100.00;98678.75;2086367;28;20725;-74
2021/11/21 02:21:48;;;;;;;28.23;25.23;;;;;;;7.45;100.00;98682.53;2089610;28;20232;-71
2021/11/21 02:22:49;;;;;;;29.65;26.40;;;;;;;7.44;100.00;98675.66;2086717;28;20242;-71
2021/11/21 02:23:51;;;;;;;28.53;25.63;;;;;;;7.41;100.00;98673.56;2086953;28;20708;-71
2021/11/21 02:24:52;;;;;;;28.92;25.95;;;;;;;7.38;100.00;98676.78;2086479;28;20215;-72
2021/11/21 02:25:56;;;;;;;29.25;26.30;;;;;;;7.36;100.00;98677.06;2086817;28;20230;-70
2021/11/21 02:26:57;;;;;;;27.23;24.58;;;;;;;7.33;100.00;98668.91;2086558;28;20227;-71
2021/11/21 02:27:59;;;;;;;27.57;24.77;;;;;;;7.31;100.00;98663.88;2077935;28;20277;-72
2021/11/21 02:28:59;;;;;;;28.02;25.13;;;;;;;7.31;100.00;98665.75;2078469;28;20304;-71
2021/11/21 02:30:02;;;;;;;27.73;24.90;;;;;;;7.29;100.00;98658.03;2091091;28;20222;-71
2021/11/21 02:31:04;;;;;;;26.23;23.63;;;;;;;7.27;100.00;98660.19;2087573;28;20223;-70
2021/11/21 02:32:09;;;;;;;26.02;23.65;;;;;;;7.28;100.00;98661.00;2088553;28;20218;-71
2021/11/21 02:33:13;;;;;;;26.90;24.40;;;;;;;7.29;100.00;98659.91;2088022;28;20263;-71
2021/11/21 02:34:15;;;;;;;26.85;24.27;;;;;;;7.27;100.00;98659.41;2087529;28;20230;-71
2021/11/21 02:35:17;;;;;;;26.07;23.37;;;;;;;7.22;100.00;98665.59;2095036;28;20222;-70
2021/11/21 02:36:21;;;;;;;26.23;23.70;;;;;;;7.19;100.00;98662.69;2087361;28;20335;-71
2021/11/21 02:37:21;;;;;;;26.90;24.33;;;;;;;7.23;100.00;98659.19;2086436;28;20222;-74
2021/11/21 02:38:26;;;;;;;26.00;23.45;;;;;;;7.26;100.00;98655.19;2080541;28;20306;-70
2021/11/21 02:39:30;;;;;;;24.98;22.75;;;;;;;7.24;100.00;98663.44;2086635;28;20230;-71
2021/11/21 02:40:31;;;;;;;24.38;22.08;;;;;;;7.27;100.00;98654.91;2087300;28;20704;-72
2021/11/21 02:41:33;;;;;;;24.65;22.23;;;;;;;7.28;100.00;98658.34;2087403;28;20230;-70
2021/11/21 02:42:34;;;;;;;24.35;22.13;;;;;;;7.29;100.00;98658.03;2087479;28;20318;-70
2021/11/21 02:43:37;;;;;;;23.80;21.70;;;;;;;7.30;100.00;98654.34;2087521;28;20732;-70
2021/11/21 02:44:38;;;;;;;23.55;21.45;;;;;;;7.35;100.00;98642.88;2095203;28;20762;-71
2021/11/21 02:45:41;;;;;;;23.93;21.70;;;;;;;7.35;100.00;98642.88;2094777;28;20603;-71
2021/11/21 02:46:42;;;;;;;24.48;22.15;;;;;;;7.32;100.00;98638.91;2086825;28;20249;-70
2021/11/21 02:47:44;;;;;;;25.03;22.77;;;;;;;7.32;100.00;98638.13;2094925;28;20218;-71
2021/11/21 02:48:47;;;;;;;25.23;22.83;;;;;;;7.29;100.00;98639.47;2087280;28;20978;-71
2021/11/21 02:49:48;;;;;;;23.88;21.67;;;;;;;7.27;100.00;98638.19;2086628;28;20636;-71
2021/11/21 02:50:50;;;;;;;24.53;22.33;;;;;;;7.27;100.00;98638.97;2087368;28;20218;-70
2021/11/21 02:51:54;;;;;;;26.15;23.45;;;;;;;7.24;100.00;98646.72;2086556;28;20511;-71
2021/11/21 02:52:57;;;;;;;24.75;22.27;;;;;;;7.28;100.00;98642.41;2078163;28;20222;-71
2021/11/21 02:53:59;;;;;;;23.63;21.63;;;;;;;7.31;100.00;98645.31;2086654;28;20223;-71
2021/11/21 02:55:00;;;;;;;23.98;21.88;;;;;;;7.33;100.00;98645.00;2087166;28;20222;-70
2021/11/21 02:56:05;;;;;;;24.30;22.20;;;;;;;7.31;100.00;98642.66;2087321;28;20673;-71
2021/11/21 02:57:05;;;;;;;24.63;22.23;;;;;;;7.32;100.00;98640.78;2086492;28;20276;-70
2021/11/21 02:58:07;;;;;;;23.63;21.53;;;;;;;7.35;100.00;98640.22;2086741;28;20222;-71
2021/11/21 02:59:09;;;;;;;24.13;22.02;;;;;;;7.34;100.00;98638.63;2087924;28;20222;-71
2021/11/21 03:00:14;;;;;;;23.27;21.35;;;;;;;7.37;100.00;98638.06;2086609;28;20331;-71
2021/11/21 03:01:20;;;;;;;23.65;21.67;;;;;;;7.36;100.00;98631.97;2086593;28;20628;-71
2021/11/21 03:02:22;;;;;;;24.17;22.17;;;;;;;7.37;100.00;98638.06;2078946;28;20713;-71
2021/11/21 03:03:24;;;;;;;24.58;22.25;;;;;;;7.36;100.00;98626.66;2094514;28;20300;-71
2021/11/21 03:04:25;;;;;;;23.05;21.00;;;;;;;7.35;100.00;98625.06;2095512;28;20274;-71
2021/11/21 03:05:27;;;;;;;24.13;21.93;;;;;;;7.39;100.00;98635.13;2094702;28;20283;-71
2021/11/21 03:06:30;;;;;;;23.55;21.55;;;;;;;7.39;100.00;98621.88;2086113;28;20226;-71
2021/11/21 03:07:33;;;;;;;23.98;21.77;;;;;;;7.40;100.00;98620.78;2094906;28;20230;-70
2021/11/21 03:08:35;;;;;;;23.00;20.92;;;;;;;7.40;100.00;98615.47;2095498;28;20309;-71
2021/11/21 03:09:35;;;;;;;24.50;22.30;;;;;;;7.39;100.00;98617.34;2094696;28;20271;-71
2021/11/21 03:10:37;;;;;;;23.17;21.13;;;;;;;7.35;100.00;98609.16;2086337;28;20720;-71
2021/11/21 03:11:38;;;;;;;23.05;20.83;;;;;;;7.39;100.00;98619.22;2086141;28;20739;-71
2021/11/21 03:12:40;;;;;;;22.13;20.23;;;;;;;7.41;100.00;98612.53;2094750;28;20592;-71
2021/11/21 03:13:42;;;;;;;22.92;21.05;;;;;;;7.40;100.00;98610.19;2095598;28;20460;-71
2021/11/21 03:14:45;;;;;;;24.13;21.92;;;;;;;7.35;100.00;98601.19;2094657;28;20225;-71
2021/11/21 03:15:47;;;;;;;23.25;21.27;;;;;;;7.36;100.00;98602.75;2094790;28;20222;-71
2021/11/21 03:16:48;;;;;;;23.05;21.05;;;;;;;7.33;100.00;98598.03;2094397;28;20739;-71
2021/11/21 03:17:50;;;;;;;24.08;21.95;;;;;;;7.33;100.00;98598.03;2086392;28;20281;-71
2021/11/21 03:18:51;;;;;;;23.25;21.23;;;;;;;7.31;100.00;98600.19;2078206;28;20227;-72
2021/11/21 03:19:52;;;;;;;23.33;21.20;;;;;;;7.30;100.00;98598.63;2088207;28;20222;-74
2021/11/21 03:20:55;;;;;;;23.52;21.33;;;;;;;7.29;100.00;98597.00;2094642;28;20225;-70
2021/11/21 03:21:57;;;;;;;23.45;21.45;;;;;;;7.30;100.00;98597.84;2092886;28;20259;-71
2021/11/21 03:22:59;;;;;;;23.25;21.23;;;;;;;7.31;100.00;98591.44;2078206;28;20238;-71
2021/11/21 03:24:01;;;;;;;22.63;20.58;;;;;;;7.34;100.00;98596.97;2078279;28;20330;-71
2021/11/21 03:25:02;;;;;;;23.83;21.70;;;;;;;7.34;100.00;98594.31;2078473;28;20644;-71
2021/11/21 03:26:04;;;;;;;24.58;22.27;;;;;;;7.34;100.00;98596.97;2086369;28;20222;-71
2021/11/21 03:27:05;;;;;;;23.38;21.30;;;;;;;7.33;100.00;98595.38;2086259;28;20238;-70
2021/11/21 03:28:07;;;;;;;22.60;20.70;;;;;;;7.32;100.00;98593.03;2078213;28;20262;-71
2021/11/21 03:29:10;;;;;;;22.63;20.52;;;;;;;7.33;100.00;98591.94;2079669;28;20625;-72
2021/11/21 03:30:15;;;;;;;23.17;21.08;;;;;;;7.33;100.00;98594.59;2078296;28;20223;-71
2021/11/21 03:31:17;;;;;;;22.30;20.45;;;;;;;7.37;100.00;98591.06;2077936;28;20636;-71
2021/11/21 03:32:19;;;;;;;22.75;20.65;;;;;;;7.41;100.00;98587.88;2086347;28;20306;-70
2021/11/21 03:33:21;;;;;;;22.00;20.10;;;;;;;7.41;100.00;98587.88;2086319;28;20807;-71
2021/11/21 03:34:22;;;;;;;23.20;21.25;;;;;;;7.42;100.00;98584.91;2077755;28;20223;-73
2021/11/21 03:35:26;;;;;;;23.40;21.43;;;;;;;7.43;100.00;98591.00;2077654;28;20247;-71
2021/11/21 03:36:27;;;;;;;22.90;20.90;;;;;;;7.42;100.00;98587.56;2080450;28;20641;-71
2021/11/21 03:37:29;;;;;;;23.25;21.25;;;;;;;7.43;100.00;98578.53;2086411;28;20218;-71
2021/11/21 03:38:32;;;;;;;23.45;21.55;;;;;;;7.46;100.00;98582.47;2086227;28;20623;-70
2021/11/21 03:39:34;;;;;;;22.60;20.60;;;;;;;7.46;100.00;98577.94;2078164;28;20291;-71
2021/11/21 03:40:36;;;;;;;22.20;20.30;;;;;;;7.48;100.00;98581.13;2086359;28;20293;-71
2021/11/21 03:41:38;;;;;;;22.67;20.67;;;;;;;7.48;100.00;98575.81;2094161;28;20317;-72
2021/11/21 03:42:42;;;;;;;23.13;21.13;;;;;;;7.49;100.00;98574.75;2086390;28;20245;-71
2021/11/21 03:43:43;;;;;;;22.50;20.52;;;;;;;7.49;100.00;98581.91;2086228;28;20286;-71
2021/11/21 03:44:45;;;;;;;23.30;21.13;;;;;;;7.48;100.00;98569.72;2094682;28;20283;-71
2021/11/21 03:45:46;;;;;;;23.02;20.90;;;;;;;7.51;100.00;98575.22;2094568;28;20222;-71
2021/11/21 03:46:47;;;;;;;22.80;20.90;;;;;;;7.51;100.00;98577.09;2085875;28;20218;-71
2021/11/21 03:47:48;;;;;;;23.42;21.13;;;;;;;7.49;100.00;98573.94;2094653;28;20601;-71
2021/11/21 03:48:53;;;;;;;22.52;20.52;;;;;;;7.49;100.00;98572.09;2094613;28;20225;-71
2021/11/21 03:49:54;;;;;;;22.85;20.98;;;;;;;7.49;100.00;98576.59;2086355;28;20233;-71
2021/11/21 03:50:57;;;;;;;22.67;20.60;;;;;;;7.47;100.00;98568.94;2094678;28;20222;-71
2021/11/21 03:51:58;;;;;;;22.30;20.50;;;;;;;7.44;100.00;98563.41;2095782;28;20737;-71
2021/11/21 03:52:59;;;;;;;23.27;21.13;;;;;;;7.45;100.00;98562.31;2096452;28;20617;-71
2021/11/21 03:54:02;;;;;;;24.00;21.90;;;;;;;7.42;100.00;98565.56;2096061;28;20716;-71
2021/11/21 03:55:05;;;;;;;23.27;21.10;;;;;;;7.42;100.00;98568.22;2096294;28;20245;-70
2021/11/21 03:56:06;;;;;;;23.00;21.02;;;;;;;7.39;100.00;98571.44;2096969;28;20312;-71
2021/11/21 03:57:10;;;;;;;23.67;21.38;;;;;;;7.37;100.00;98567.19;2095676;28;20226;-72
2021/11/21 03:58:11;;;;;;;23.77;21.60;;;;;;;7.33;100.00;98562.75;2096670;28;20232;-71
2021/11/21 03:59:13;;;;;;;23.47;21.40;;;;;;;7.32;100.00;98569.13;2104684;28;20252;-71
2021/11/21 04:00:17;;;;;;;23.92;21.75;;;;;;;7.32;100.00;98567.28;2096982;28;20276;-71
2021/11/21 04:01:19;;;;;;;23.70;21.50;;;;;;;7.27;100.00;98564.69;2096279;28;20226;-71
2021/11/21 04:02:20;;;;;;;24.20;21.85;;;;;;;7.29;100.00;98559.88;2096169;28;20574;-70
2021/11/21 04:03:27;;;;;;;22.63;20.73;;;;;;;7.28;100.00;98566.25;2096952;28;20305;-71
2021/11/21 04:04:31;;;;;;;22.95;20.83;;;;;;;7.27;100.00;98559.38;2095819;28;20253;-71
2021/11/21 04:05:33;;;;;;;23.52;21.42;;;;;;;7.25;100.00;98566.84;2087864;28;20234;-71
2021/11/21 04:06:34;;;;;;;23.60;21.38;;;;;;;7.23;100.00;98558.38;2096183;28;20685;-71
2021/11/21 04:07:36;;;;;;;24.13;21.90;;;;;;;7.24;100.00;98569.78;2096899;28;20298;-70
2021/11/21 04:08:36;;;;;;;23.73;21.63;;;;;;;7.23;100.00;98553.06;2096999;28;20680;-71
2021/11/21 04:09:42;;;;;;;23.43;21.33;;;;;;;7.19;100.00;98546.75;2096671;28;20270;-72
2021/11/21 04:10:44;;;;;;;23.33;21.27;;;;;;;7.26;100.00;98557.00;2096900;28;20292;-70
2021/11/21 04:11:46;;;;;;;23.60;21.48;;;;;;;7.25;100.00;98556.22;2095515;28;20217;-71
2021/11/21 04:12:46;;;;;;;23.25;21.25;;;;;;;7.24;100.00;98559.16;2096137;28;20230;-72
2021/11/21 04:13:48;;;;;;;24.17;21.67;;;;;;;7.21;100.00;98560.53;2096076;28;20221;-70
2021/11/21 04:14:49;;;;;;;23.52;21.33;;;;;;;7.22;100.00;98567.41;2087892;28;20258;-71
2021/11/21 04:15:51;;;;;;;24.33;22.03;;;;;;;7.20;100.00;98558.94;2079752;28;20226;-71
2021/11/21 04:16:52;;;;;;;23.48;21.40;;;;;;;7.21;100.00;98560.53;2079443;28;20293;-71
2021/11/21 04:17:56;;;;;;;23.95;21.77;;;;;;;7.17;100.00;98562.16;2081280;28;20330;-71
2021/11/21 04:18:57;;;;;;;24.45;21.92;;;;;;;7.15;100.00;98561.66;2079952;28;20234;-71
2021/11/21 04:19:59;;;;;;;23.47;21.30;;;;;;;7.13;100.00;98553.22;2079515;28;20717;-71
2021/11/21 04:21:01;;;;;;;23.90;21.73;;;;;;;7.11;100.00;98555.34;2087882;28;20292;-71
2021/11/21 04:22:02;;;;;;;24.77;22.50;;;;;;;7.06;100.00;98550.91;2087644;28;20681;-71
2021/11/21 04:23:04;;;;;;;23.67;21.67;;;;;;;7.07;100.00;98551.69;2079484;28;20647;-71
2021/11/21 04:24:12;;;;;;;25.40;23.10;;;;;;;7.02;100.00;98557.06;2087751;28;20580;-71
2021/11/21 04:25:15;;;;;;;24.48;22.33;;;;;;;7.01;100.00;98560.78;2088294;28;20661;-71
2021/11/21 04:26:16;;;;;;;24.65;22.45;;;;;;;6.98;100.00;98551.53;2087537;28;20280;-71
2021/11/21 04:27:19;;;;;;;23.52;21.38;;;;;;;6.97;100.00;98551.81;2079090;28;20231;-71
2021/11/21 04:28:20;;;;;;;24.92;22.25;;;;;;;6.93;100.00;98545.50;2087630;28;20222;-71
2021/11/21 04:29:22;;;;;;;23.73;21.60;;;;;;;6.89;100.00;98542.63;2087869;28;20215;-71
2021/11/21 04:30:22;;;;;;;25.23;22.70;;;;;;;6.88;100.00;98553.53;2079059;28;20227;-71
2021/11/21 04:31:24;;;;;;;24.20;21.83;;;;;;;6.79;100.00;98540.91;2087725;28;20227;-71
2021/11/21 04:32:25;;;;;;;24.50;22.30;;;;;;;6.78;100.00;98543.84;2088387;28;20226;-71
2021/11/21 04:33:27;;;;;;;25.60;23.10;;;;;;;6.73;100.00;98543.88;2088218;28;20226;-72
2021/11/21 04:34:28;;;;;;;24.90;22.60;;;;;;;6.72;100.00;98543.09;2087586;28;20218;-71
2021/11/21 04:35:30;;;;;;;24.20;21.80;;;;;;;6.66;100.00;98544.22;2087854;28;20565;-71
2021/11/21 04:36:32;;;;;;;23.92;21.60;;;;;;;6.61;100.00;98543.50;2088320;28;20276;-71
2021/11/21 04:37:33;;;;;;;25.23;22.63;;;;;;;6.59;100.00;98541.13;2088491;28;20260;-71
2021/11/21 04:38:35;;;;;;;24.50;22.00;;;;;;;6.59;100.00;98549.06;2088404;28;20254;-71
2021/11/21 04:39:36;;;;;;;24.85;22.65;;;;;;;6.52;100.00;98540.69;2095661;28;20833;-71
2021/11/21 04:43:12;;;;;;;25.35;22.73;;;;;;;6.46;100.00;98539.16;2087080;28;20575;-71
2021/11/21 04:44:13;;;;;;;25.00;22.60;;;;;;;6.41;100.00;98539.19;2095152;28;20222;-71
2021/11/21 04:45:15;;;;;;;25.27;22.97;;;;;;;6.36;100.00;98540.06;2089051;28;20272;-72
2021/11/21 04:46:16;;;;;;;25.15;22.73;;;;;;;6.35;100.00;98540.34;2079461;28;20302;-71
2021/11/21 04:47:20;;;;;;;25.35;22.85;;;;;;;6.31;100.00;98539.31;2087743;28;20229;-71
2021/11/21 04:48:23;;;;;;;24.52;22.30;;;;;;;6.28;100.00;98545.19;2088431;28;20226;-71
2021/11/21 04:49:25;;;;;;;24.52;22.13;;;;;;;6.20;100.00;98531.47;2087970;28;20246;-70
2021/11/21 04:50:26;;;;;;;24.63;22.42;;;;;;;6.21;100.00;98538.34;2087552;28;20234;-71
2021/11/21 04:51:27;;;;;;;24.07;21.97;;;;;;;6.18;100.00;98540.78;2087730;28;20230;-71